Time;durP1;ratioP1;P1;durP2;ratioP2;P2;SDS_P1;SDS_P2;PMS_P1;PMS_P2;Temp;Humidity;BMP_temperature;BMP_pressure;BME280_temperature;BME280_humidity;BME280_pressure;Samples;Min_cycle;Max_cycle;Signal;HPM_P1;HPM_P2
2021/12/09 00:01:23;;;;;;;8.02;4.80;;;;;;;;;;5063094;28;20068;-48
2021/12/09 00:03:51;;;;;;;7.28;4.32;;;;;;;;;;5063629;28;20032;-47
2021/12/09 00:06:22;;;;;;;7.07;4.85;;;;;;;;;;5062703;28;20570;-52
2021/12/09 00:08:49;;;;;;;8.50;4.50;;;;;;;;;;5063074;28;20939;-50
2021/12/09 00:11:15;;;;;;;6.65;4.45;;;;;;;;;;5063299;28;20040;-47
2021/12/09 00:13:41;;;;;;;6.07;4.07;;;;;;;;;;5063448;28;20035;-52
2021/12/09 00:16:09;;;;;;;7.93;5.15;;;;;;;;;;5062852;28;20036;-51
2021/12/09 00:18:35;;;;;;;9.38;5.82;;;;;;;;;;5066936;28;20032;-50
2021/12/09 00:21:01;;;;;;;7.85;5.13;;;;;;;;;;5066857;28;20032;-48
2021/12/09 00:23:28;;;;;;;6.38;3.95;;;;;;;;;;5049228;28;20048;-51
2021/12/09 00:25:54;;;;;;;8.00;4.55;;;;;;;;;;5067736;28;20035;-48
2021/12/09 00:28:21;;;;;;;8.32;5.00;;;;;;;;;;5066410;28;20035;-49
2021/12/09 00:30:47;;;;;;;9.40;6.15;;;;;;;;;;5066740;28;20029;-48
2021/12/09 00:33:16;;;;;;;10.60;6.38;;;;;;;;;;5066364;28;20040;-48
2021/12/09 00:35:51;;;;;;;11.38;6.45;;;;;;;;;;5066176;28;20503;-47
2021/12/09 00:38:39;;;;;;;10.20;6.95;;;;;;;;;;5065825;28;20028;-49
2021/12/09 00:41:06;;;;;;;10.93;6.85;;;;;;;;;;5066261;28;20048;-49
2021/12/09 00:43:32;;;;;;;10.50;5.80;;;;;;;;;;5066049;28;20434;-51
2021/12/09 00:45:58;;;;;;;8.63;5.55;;;;;;;;;;5066675;28;20101;-49
2021/12/09 00:48:26;;;;;;;9.73;5.40;;;;;;;;;;5066837;28;20037;-51
2021/12/09 00:50:53;;;;;;;7.75;4.47;;;;;;;;;;5066237;28;20510;-50
2021/12/09 00:53:19;;;;;;;7.57;4.22;;;;;;;;;;5065468;28;20085;-52
2021/12/09 00:55:45;;;;;;;7.63;4.35;;;;;;;;;;5066261;28;20063;-50
2021/12/09 00:58:12;;;;;;;6.47;3.50;;;;;;;;;;5066156;28;20474;-52
2021/12/09 01:00:39;;;;;;;6.47;4.03;;;;;;;;;;5066614;28;20426;-51
2021/12/09 01:03:05;;;;;;;8.20;4.60;;;;;;;;;;5066236;28;20204;-52
2021/12/09 01:05:32;;;;;;;8.30;4.47;;;;;;;;;;5065542;28;20028;-48
2021/12/09 01:07:59;;;;;;;6.43;4.40;;;;;;;;;;5066813;28;20028;-50
2021/12/09 01:10:25;;;;;;;5.40;3.92;;;;;;;;;;5067125;28;20142;-52
2021/12/09 01:12:52;;;;;;;5.20;3.42;;;;;;;;;;5064183;28;20110;-50
2021/12/09 01:15:19;;;;;;;5.03;3.40;;;;;;;;;;5064752;28;20035;-48
2021/12/09 01:17:46;;;;;;;5.88;3.60;;;;;;;;;;5066508;28;20036;-51
2021/12/09 01:20:13;;;;;;;7.55;3.80;;;;;;;;;;5065883;28;20032;-52
2021/12/09 01:22:43;;;;;;;5.97;3.10;;;;;;;;;;5066289;28;20530;-51
2021/12/09 01:25:11;;;;;;;4.03;2.67;;;;;;;;;;5065846;28;20042;-51
2021/12/09 01:27:42;;;;;;;3.65;2.33;;;;;;;;;;5066355;28;20104;-52
2021/12/09 01:30:12;;;;;;;3.88;2.55;;;;;;;;;;5064499;28;20442;-51
2021/12/09 01:32:42;;;;;;;3.80;2.20;;;;;;;;;;5066405;28;20435;-51
2021/12/09 01:35:09;;;;;;;3.30;2.20;;;;;;;;;;5065692;28;20421;-50
2021/12/09 01:37:36;;;;;;;2.40;1.83;;;;;;;;;;5066155;28;20028;-51
2021/12/09 01:40:04;;;;;;;4.20;1.90;;;;;;;;;;5064618;28;20031;-49
2021/12/09 01:42:30;;;;;;;2.58;1.67;;;;;;;;;;5065832;28;20453;-50
2021/12/09 01:44:56;;;;;;;2.25;1.58;;;;;;;;;;5066506;28;20028;-47
2021/12/09 01:47:22;;;;;;;1.45;1.30;;;;;;;;;;5065700;28;20428;-49
2021/12/09 01:49:49;;;;;;;2.25;1.40;;;;;;;;;;5065609;28;20227;-51
2021/12/09 01:52:15;;;;;;;2.35;1.50;;;;;;;;;;5065662;28;20574;-51
2021/12/09 01:54:41;;;;;;;1.63;1.30;;;;;;;;;;5065092;28;20028;-52
2021/12/09 01:57:07;;;;;;;1.67;1.27;;;;;;;;;;5065388;28;20294;-50
2021/12/09 01:59:34;;;;;;;1.48;1.30;;;;;;;;;;5065944;28;20031;-51
2021/12/09 02:02:01;;;;;;;1.98;1.30;;;;;;;;;;5065510;28;20114;-51
2021/12/09 02:04:28;;;;;;;1.80;1.30;;;;;;;;;;5065825;28;20082;-51
2021/12/09 02:06:54;;;;;;;1.20;1.10;;;;;;;;;;5065604;28;20045;-50
2021/12/09 02:09:21;;;;;;;1.65;1.50;;;;;;;;;;5047136;28;20111;-48
2021/12/09 02:11:47;;;;;;;1.65;1.30;;;;;;;;;;5065156;28;20024;-51
2021/12/09 02:14:13;;;;;;;1.23;1.08;;;;;;;;;;5064195;28;20020;-48
2021/12/09 02:16:40;;;;;;;1.85;1.40;;;;;;;;;;5065385;28;20028;-51
2021/12/09 02:19:10;;;;;;;2.13;1.30;;;;;;;;;;5064887;28;20038;-48
2021/12/09 02:21:37;;;;;;;1.20;1.00;;;;;;;;;;5065280;28;20099;-51
2021/12/09 02:24:06;;;;;;;1.25;1.00;;;;;;;;;;5065124;28;20020;-50
2021/12/09 02:26:36;;;;;;;2.03;1.17;;;;;;;;;;5065136;28;20025;-51
2021/12/09 02:29:05;;;;;;;2.15;1.40;;;;;;;;;;5063196;28;20074;-50
2021/12/09 02:31:31;;;;;;;2.53;1.88;;;;;;;;;;5065080;28;20044;-52
2021/12/09 02:33:57;;;;;;;1.83;1.58;;;;;;;;;;5065321;28;20036;-48
2021/12/09 02:36:25;;;;;;;1.88;1.60;;;;;;;;;;5065250;28;20028;-50
2021/12/09 02:38:51;;;;;;;1.70;1.33;;;;;;;;;;5064858;28;20089;-50
2021/12/09 02:41:20;;;;;;;1.83;1.58;;;;;;;;;;5064715;28;20430;-52
2021/12/09 02:43:54;;;;;;;2.10;1.67;;;;;;;;;;5064221;28;20086;-50
2021/12/09 02:46:20;;;;;;;;;;;;;;;;;;5064936;28;20024;-49
2021/12/09 02:48:46;;;;;;;2.17;1.88;;;;;;;;;;5064662;28;20294;-52
2021/12/09 02:51:13;;;;;;;2.75;1.77;;;;;;;;;;5064637;28;20051;-52
2021/12/09 02:53:40;;;;;;;2.42;1.95;;;;;;;;;;5063927;28;20105;-51
2021/12/09 02:56:07;;;;;;;2.00;1.83;;;;;;;;;;5064470;28;20115;-48
2021/12/09 02:58:34;;;;;;;3.20;2.03;;;;;;;;;;5064580;28;20031;-48
2021/12/09 03:01:05;;;;;;;2.13;1.90;;;;;;;;;;5064601;28;20034;-48
2021/12/09 03:03:32;;;;;;;2.10;1.85;;;;;;;;;;5064432;28;20122;-50
2021/12/09 03:05:59;;;;;;;2.20;1.73;;;;;;;;;;5064346;28;20031;-49
2021/12/09 03:08:34;;;;;;;2.25;1.90;;;;;;;;;;5063533;28;20032;-48
2021/12/09 03:11:07;;;;;;;2.80;1.90;;;;;;;;;;5064676;28;20266;-51
2021/12/09 03:13:34;;;;;;;2.47;1.80;;;;;;;;;;5046619;28;20392;-51
2021/12/09 03:16:00;;;;;;;1.70;1.50;;;;;;;;;;5064549;28;20125;-52
2021/12/09 03:18:26;;;;;;;2.30;1.48;;;;;;;;;;5064904;28;20044;-50
2021/12/09 03:20:52;;;;;;;2.10;1.50;;;;;;;;;;5064604;28;20487;-51
2021/12/09 03:23:19;;;;;;;1.52;1.25;;;;;;;;;;5063392;28;20035;-50
2021/12/09 03:25:45;;;;;;;1.45;1.30;;;;;;;;;;5064263;28;20048;-51
2021/12/09 03:28:11;;;;;;;2.90;1.60;;;;;;;;;;5062896;28;20542;-50
2021/12/09 03:30:37;;;;;;;2.40;1.45;;;;;;;;;;5064351;28;20025;-50
2021/12/09 03:33:04;;;;;;;2.95;2.33;;;;;;;;;;5064125;28;20460;-51
2021/12/09 03:35:30;;;;;;;2.63;1.73;;;;;;;;;;5063625;28;20025;-50
2021/12/09 03:37:57;;;;;;;1.92;1.50;;;;;;;;;;5064735;28;20414;-50
2021/12/09 03:40:23;;;;;;;2.05;1.77;;;;;;;;;;5064086;28;20035;-50
2021/12/09 03:42:49;;;;;;;1.48;1.30;;;;;;;;;;5064459;28;20278;-50
2021/12/09 03:45:15;;;;;;;1.92;1.60;;;;;;;;;;5063726;28;20032;-52
2021/12/09 03:47:41;;;;;;;2.00;1.70;;;;;;;;;;5064306;28;20085;-51
2021/12/09 03:50:09;;;;;;;2.00;1.70;;;;;;;;;;5063341;28;20032;-51
2021/12/09 03:52:35;;;;;;;1.60;1.50;;;;;;;;;;5066468;28;20042;-48
2021/12/09 03:55:02;;;;;;;2.85;1.88;;;;;;;;;;5067888;28;20503;-49
2021/12/09 03:57:28;;;;;;;2.92;1.60;;;;;;;;;;5068340;28;20083;-49
2021/12/09 03:59:54;;;;;;;1.70;1.45;;;;;;;;;;5068633;28;20580;-51
2021/12/09 04:02:22;;;;;;;1.55;1.38;;;;;;;;;;5067743;28;20028;-48
2021/12/09 04:04:48;;;;;;;1.40;1.30;;;;;;;;;;5066358;28;20027;-52
2021/12/09 04:07:14;;;;;;;1.73;1.42;;;;;;;;;;5066821;28;20232;-51
2021/12/09 04:09:40;;;;;;;1.75;1.60;;;;;;;;;;5067933;28;20028;-51
2021/12/09 04:12:07;;;;;;;1.42;1.33;;;;;;;;;;5067381;28;20033;-51
2021/12/09 04:14:33;;;;;;;1.65;1.48;;;;;;;;;;5067629;28;20446;-52
2021/12/09 04:16:59;;;;;;;1.35;1.25;;;;;;;;;;5067445;28;20066;-51
2021/12/09 04:19:26;;;;;;;2.58;1.70;;;;;;;;;;5067383;28;20599;-52
2021/12/09 04:21:52;;;;;;;1.80;1.70;;;;;;;;;;5067758;28;20028;-51
2021/12/09 04:24:20;;;;;;;1.70;1.60;;;;;;;;;;5065479;28;20035;-52
2021/12/09 04:26:49;;;;;;;2.45;1.83;;;;;;;;;;5066404;28;20556;-49
2021/12/09 04:29:17;;;;;;;1.95;1.65;;;;;;;;;;5067078;28;20013;-52
2021/12/09 04:31:44;;;;;;;2.10;1.85;;;;;;;;;;5049382;28;20471;-52
2021/12/09 04:34:11;;;;;;;3.08;2.30;;;;;;;;;;5066328;28;20035;-49
2021/12/09 04:36:38;;;;;;;2.33;1.73;;;;;;;;;;5065951;28;20029;-51
2021/12/09 04:39:05;;;;;;;2.55;2.10;;;;;;;;;;5066973;28;20029;-50
2021/12/09 04:41:31;;;;;;;2.65;2.08;;;;;;;;;;5067272;28;20035;-51
2021/12/09 04:43:57;;;;;;;3.20;1.92;;;;;;;;;;5066953;28;20039;-48
2021/12/09 04:46:24;;;;;;;2.22;1.85;;;;;;;;;;5066482;28;20028;-51
2021/12/09 04:48:50;;;;;;;3.15;1.80;;;;;;;;;;5066151;28;20415;-49
2021/12/09 04:51:16;;;;;;;2.38;1.98;;;;;;;;;;5066665;28;20081;-49
2021/12/09 04:53:42;;;;;;;2.05;1.85;;;;;;;;;;5067075;28;20158;-48
2021/12/09 04:56:09;;;;;;;2.42;2.03;;;;;;;;;;5066002;28;20028;-49
2021/12/09 04:58:35;;;;;;;2.05;1.83;;;;;;;;;;5066743;28;20029;-50
2021/12/09 05:01:02;;;;;;;1.95;1.75;;;;;;;;;;5066660;28;20123;-49
2021/12/09 05:03:28;;;;;;;3.90;2.00;;;;;;;;;;5066224;28;20025;-51
2021/12/09 05:05:55;;;;;;;2.45;2.15;;;;;;;;;;5047673;28;20500;-52
2021/12/09 05:08:23;;;;;;;3.00;2.00;;;;;;;;;;5065745;28;20047;-50
2021/12/09 05:10:59;;;;;;;6.05;3.08;;;;;;;;;;5066293;28;20028;-50
2021/12/09 05:13:28;;;;;;;4.05;2.72;;;;;;;;;;5067047;28;20031;-50
2021/12/09 05:15:55;;;;;;;3.75;2.90;;;;;;;;;;5067246;28;20024;-52
2021/12/09 05:18:21;;;;;;;4.80;3.30;;;;;;;;;;5065159;28;20111;-49
2021/12/09 05:20:48;;;;;;;4.82;3.35;;;;;;;;;;5066488;28;20044;-49
2021/12/09 05:23:16;;;;;;;5.70;3.15;;;;;;;;;;5066122;28;20025;-49
2021/12/09 05:25:44;;;;;;;3.05;2.22;;;;;;;;;;5065132;28;20056;-51
2021/12/09 05:28:11;;;;;;;3.80;2.50;;;;;;;;;;5065336;28;20020;-52
2021/12/09 05:32:07;;;;;;;4.65;2.50;;;;;;;;;;5065780;28;20400;-51
2021/12/09 05:33:27;;;;;;;3.50;2.47;;;;;;;;;;5066559;28;20037;-51
2021/12/09 05:35:53;;;;;;;3.92;2.60;;;;;;;;;;5066458;28;20028;-52
2021/12/09 05:38:20;;;;;;;2.65;2.17;;;;;;;;;;5064343;28;20047;-52
2021/12/09 05:40:47;;;;;;;3.40;2.50;;;;;;;;;;5065461;28;20499;-51
2021/12/09 05:43:14;;;;;;;2.40;2.10;;;;;;;;;;5065861;28;20028;-49
2021/12/09 05:45:41;;;;;;;2.92;2.42;;;;;;;;;;5065447;28;20060;-50
2021/12/09 05:48:09;;;;;;;2.50;2.15;;;;;;;;;;5062638;28;20470;-51
2021/12/09 05:50:35;;;;;;;2.65;2.33;;;;;;;;;;5064225;28;20115;-52
2021/12/09 05:53:02;;;;;;;3.17;2.42;;;;;;;;;;5065519;28;20568;-51
2021/12/09 05:55:30;;;;;;;2.70;2.17;;;;;;;;;;5066168;28;20439;-48
2021/12/09 05:57:57;;;;;;;3.13;2.30;;;;;;;;;;5065552;28;20037;-49
2021/12/09 06:00:23;;;;;;;3.35;1.92;;;;;;;;;;5065346;28;20099;-51
2021/12/09 06:02:50;;;;;;;2.60;2.00;;;;;;;;;;5065741;28;20612;-51
2021/12/09 06:05:18;;;;;;;1.90;1.70;;;;;;;;;;5065022;28;20024;-51
2021/12/09 06:07:47;;;;;;;2.58;2.10;;;;;;;;;;5064613;28;20025;-50
2021/12/09 06:10:14;;;;;;;5.95;3.33;;;;;;;;;;5065204;28;20031;-50
2021/12/09 06:12:40;;;;;;;8.45;4.22;;;;;;;;;;5065357;28;20073;-48
2021/12/09 06:15:06;;;;;;;10.30;5.57;;;;;;;;;;5064637;28;20036;-52
2021/12/09 06:17:32;;;;;;;9.93;5.60;;;;;;;;;;5064144;28;20439;-49
2021/12/09 06:19:58;;;;;;;11.73;5.93;;;;;;;;;;5066221;28;20450;-49
2021/12/09 06:22:25;;;;;;;11.23;6.75;;;;;;;;;;5065944;28;20032;-51
2021/12/09 06:24:52;;;;;;;11.55;6.80;;;;;;;;;;5065317;28;20020;-52
2021/12/09 06:27:19;;;;;;;13.82;7.05;;;;;;;;;;5063967;28;20226;-51
2021/12/09 06:29:45;;;;;;;10.70;5.78;;;;;;;;;;5065147;28;20025;-51
2021/12/09 06:32:11;;;;;;;8.32;5.13;;;;;;;;;;5064774;28;20025;-52
2021/12/09 06:34:37;;;;;;;8.15;4.55;;;;;;;;;;5064533;28;20055;-50
2021/12/09 06:37:03;;;;;;;5.70;3.85;;;;;;;;;;5065929;28;20025;-47
2021/12/09 06:39:29;;;;;;;6.18;3.58;;;;;;;;;;5048343;28;20028;-52
2021/12/09 06:41:56;;;;;;;4.10;3.05;;;;;;;;;;5066571;28;20060;-49
2021/12/09 06:44:23;;;;;;;4.25;2.88;;;;;;;;;;5064834;28;20056;-49
2021/12/09 06:46:49;;;;;;;4.32;2.90;;;;;;;;;;5066144;28;20029;-50
2021/12/09 06:49:15;;;;;;;3.20;2.58;;;;;;;;;;5065416;28;20369;-50
2021/12/09 06:51:41;;;;;;;3.65;2.83;;;;;;;;;;5064244;28;20033;-52
2021/12/09 06:54:07;;;;;;;3.80;2.42;;;;;;;;;;5047378;28;20020;-51
2021/12/09 06:56:34;;;;;;;3.70;2.85;;;;;;;;;;5066383;28;20063;-51
2021/12/09 06:59:01;;;;;;;3.42;2.95;;;;;;;;;;5065969;28;20031;-52
2021/12/09 07:01:27;;;;;;;4.32;3.42;;;;;;;;;;5066769;28;20036;-52
2021/12/09 07:03:53;;;;;;;4.15;3.40;;;;;;;;;;5065589;28;20412;-51
2021/12/09 07:06:20;;;;;;;3.28;2.83;;;;;;;;;;5063845;28;20356;-52
2021/12/09 07:08:48;;;;;;;3.83;2.80;;;;;;;;;;5048156;28;20562;-51
2021/12/09 07:11:16;;;;;;;3.40;2.60;;;;;;;;;;5048260;28;20025;-50
2021/12/09 07:13:42;;;;;;;2.50;2.28;;;;;;;;;;5065063;28;20025;-50
2021/12/09 07:16:09;;;;;;;2.28;2.08;;;;;;;;;;5064278;28;20506;-49
2021/12/09 07:18:35;;;;;;;3.20;2.17;;;;;;;;;;5064689;28;20029;-52
2021/12/09 07:21:01;;;;;;;2.40;2.13;;;;;;;;;;5066133;28;20506;-53
2021/12/09 07:23:27;;;;;;;3.58;2.10;;;;;;;;;;5065589;28;20510;-52
2021/12/09 07:25:53;;;;;;;2.50;2.30;;;;;;;;;;5065623;28;20071;-51
2021/12/09 07:28:19;;;;;;;2.35;2.15;;;;;;;;;;5067716;28;20594;-49
2021/12/09 07:30:47;;;;;;;2.28;1.92;;;;;;;;;;5065888;28;20040;-52
2021/12/09 07:33:13;;;;;;;1.75;1.65;;;;;;;;;;5068308;28;20154;-48
2021/12/09 07:35:40;;;;;;;2.05;1.80;;;;;;;;;;5066309;28;20113;-49
2021/12/09 07:38:06;;;;;;;2.42;2.03;;;;;;;;;;5068333;28;20024;-52
2021/12/09 07:40:34;;;;;;;2.35;1.92;;;;;;;;;;5068131;28;20077;-52
2021/12/09 07:43:00;;;;;;;2.20;1.88;;;;;;;;;;5068823;28;20020;-48
2021/12/09 07:45:27;;;;;;;2.15;1.90;;;;;;;;;;5064404;28;20407;-49
2021/12/09 07:47:53;;;;;;;3.60;2.30;;;;;;;;;;5065345;28;20090;-48
2021/12/09 07:50:21;;;;;;;1.73;1.60;;;;;;;;;;5067725;28;20028;-49
2021/12/09 07:52:48;;;;;;;2.70;1.88;;;;;;;;;;5069381;28;20025;-52
2021/12/09 07:55:15;;;;;;;2.25;1.88;;;;;;;;;;5071828;28;20028;-51
2021/12/09 07:57:42;;;;;;;2.40;1.80;;;;;;;;;;5074894;28;20108;-52
2021/12/09 08:00:12;;;;;;;2.42;1.92;;;;;;;;;;5069928;28;20543;-52
2021/12/09 08:02:42;;;;;;;2.08;1.63;;;;;;;;;;5070161;28;20033;-53
2021/12/09 08:05:09;;;;;;;2.17;1.80;;;;;;;;;;5062767;28;20474;-53
2021/12/09 08:07:35;;;;;;;2.40;1.85;;;;;;;;;;5074594;28;20487;-53
2021/12/09 08:10:03;;;;;;;2.42;1.70;;;;;;;;;;5065427;28;20032;-50
2021/12/09 08:12:29;;;;;;;1.70;1.60;;;;;;;;;;5069212;28;20453;-52
2021/12/09 08:14:57;;;;;;;2.70;2.20;;;;;;;;;;5068797;28;20029;-49
2021/12/09 08:20:09;;;;;;;2.72;1.85;;;;;;;;;;5068398;28;20048;-51
2021/12/09 08:22:35;;;;;;;3.88;2.10;;;;;;;;;;5074216;28;20372;-51
2021/12/09 08:25:01;;;;;;;6.03;2.60;;;;;;;;;;5073175;28;20475;-52
2021/12/09 08:27:29;;;;;;;7.82;3.15;;;;;;;;;;5070231;28;20020;-49
2021/12/09 08:29:56;;;;;;;10.68;4.13;;;;;;;;;;5062970;28;20032;-51
2021/12/09 08:32:22;;;;;;;8.00;3.70;;;;;;;;;;5061728;28;20054;-53
2021/12/09 08:34:48;;;;;;;7.20;3.35;;;;;;;;;;5075077;28;20462;-51
2021/12/09 08:37:14;;;;;;;6.90;3.10;;;;;;;;;;5072617;28;20495;-50
2021/12/09 08:39:41;;;;;;;5.22;2.58;;;;;;;;;;5067515;28;20051;-52
2021/12/09 08:42:07;;;;;;;3.92;2.42;;;;;;;;;;5068186;28;20391;-50
2021/12/09 08:44:33;;;;;;;4.75;2.95;;;;;;;;;;5068811;28;20024;-50
2021/12/09 08:46:59;;;;;;;6.55;2.60;;;;;;;;;;5069384;28;20493;-53
2021/12/09 08:49:25;;;;;;;9.45;3.63;;;;;;;;;;5059311;28;20029;-52
2021/12/09 08:51:51;;;;;;;9.02;4.55;;;;;;;;;;5068141;28;20021;-52
2021/12/09 08:54:17;;;;;;;13.73;5.80;;;;;;;;;;5068598;28;20101;-51
2021/12/09 08:56:50;;;;;;;15.38;6.25;;;;;;;;;;5069027;28;20076;-53
2021/12/09 08:59:16;;;;;;;11.55;4.82;;;;;;;;;;5067852;28;20107;-52
2021/12/09 09:01:43;;;;;;;8.07;4.28;;;;;;;;;;5067638;28;20053;-53
2021/12/09 09:04:09;;;;;;;7.53;3.50;;;;;;;;;;5068388;28;20029;-53
2021/12/09 09:06:35;;;;;;;6.50;3.42;;;;;;;;;;5067983;28;20020;-53
2021/12/09 09:09:04;;;;;;;4.15;2.65;;;;;;;;;;5068491;28;20039;-51
2021/12/09 09:11:30;;;;;;;7.35;3.92;;;;;;;;;;5069426;28;20016;-53
2021/12/09 09:13:57;;;;;;;9.18;4.80;;;;;;;;;;5066485;28;20107;-52
2021/12/09 09:16:23;;;;;;;7.53;3.63;;;;;;;;;;5067854;28;20037;-51
2021/12/09 09:18:53;;;;;;;10.15;4.93;;;;;;;;;;5067186;28;20040;-53
2021/12/09 09:21:19;;;;;;;9.27;4.55;;;;;;;;;;5050460;28;20431;-52
2021/12/09 09:23:45;;;;;;;7.30;4.05;;;;;;;;;;5065655;28;20035;-53
2021/12/09 09:26:11;;;;;;;10.80;4.95;;;;;;;;;;5066485;28;20024;-55
2021/12/09 09:28:37;;;;;;;15.23;6.07;;;;;;;;;;5066652;28;20032;-53
2021/12/09 09:31:04;;;;;;;18.40;6.00;;;;;;;;;;5064818;28;20029;-53
2021/12/09 09:33:31;;;;;;;14.73;5.55;;;;;;;;;;5064152;28;20040;-52
2021/12/09 09:35:57;;;;;;;14.40;6.03;;;;;;;;;;5067944;28;20067;-52
2021/12/09 09:38:24;;;;;;;13.73;5.07;;;;;;;;;;5064254;28;20075;-52
2021/12/09 09:40:59;;;;;;;11.48;5.32;;;;;;;;;;5065913;28;20036;-52
2021/12/09 09:44:13;;;;;;;8.07;4.07;;;;;;;;;;5064670;28;20028;-52
2021/12/09 09:46:31;;;;;;;12.43;5.75;;;;;;;;;;5055103;28;20037;-54
2021/12/09 09:48:58;;;;;;;16.95;7.13;;;;;;;;;;5059737;28;20036;-53
2021/12/09 09:51:26;;;;;;;12.82;5.35;;;;;;;;;;5063685;28;20032;-52
2021/12/09 09:53:52;;;;;;;12.40;5.70;;;;;;;;;;5059679;28;20032;-53
2021/12/09 09:56:21;;;;;;;10.15;5.05;;;;;;;;;;5047674;28;20421;-52
2021/12/09 09:58:49;;;;;;;10.68;4.70;;;;;;;;;;5066663;28;20032;-52
2021/12/09 10:01:15;;;;;;;12.40;5.07;;;;;;;;;;5062465;28;20068;-52
2021/12/09 10:03:46;;;;;;;7.43;4.20;;;;;;;;;;5066333;28;20041;-52
2021/12/09 10:06:12;;;;;;;7.05;3.80;;;;;;;;;;5065064;28;20099;-53
2021/12/09 10:08:39;;;;;;;7.03;3.85;;;;;;;;;;5066976;28;20040;-52
2021/12/09 10:11:05;;;;;;;5.85;3.67;;;;;;;;;;5067362;28;20495;-52
2021/12/09 10:13:32;;;;;;;4.93;3.30;;;;;;;;;;5067076;28;20044;-51
2021/12/09 10:15:58;;;;;;;4.63;2.75;;;;;;;;;;5067313;28;20118;-53
2021/12/09 10:18:51;;;;;;;4.13;2.58;;;;;;;;;;5067098;28;20031;-52
2021/12/09 10:21:24;;;;;;;5.50;2.03;;;;;;;;;;5062759;28;20522;-51
2021/12/09 10:23:57;;;;;;;3.53;2.47;;;;;;;;;;5066351;28;20028;-51
2021/12/09 10:26:25;;;;;;;6.07;3.35;;;;;;;;;;5060471;28;20100;-52
2021/12/09 10:28:52;;;;;;;9.05;4.78;;;;;;;;;;5050554;28;20032;-52
2021/12/09 10:31:21;;;;;;;10.65;5.25;;;;;;;;;;5068303;28;20020;-52
2021/12/09 10:33:59;;;;;;;10.57;5.57;;;;;;;;;;5066951;28;20538;-53
2021/12/09 10:36:44;;;;;;;8.88;4.85;;;;;;;;;;5062764;28;20060;-53
2021/12/09 10:39:34;;;;;;;9.70;5.13;;;;;;;;;;5057282;28;20543;-53
2021/12/09 10:42:02;;;;;;;7.43;4.38;;;;;;;;;;5055874;28;20028;-53
2021/12/09 10:44:37;;;;;;;5.75;3.70;;;;;;;;;;5066191;28;20025;-54
2021/12/09 10:47:11;;;;;;;4.18;3.10;;;;;;;;;;5065428;28;20052;-53
2021/12/09 10:49:51;;;;;;;4.38;2.80;;;;;;;;;;5058385;28;20033;-52
2021/12/09 10:52:26;;;;;;;3.03;2.42;;;;;;;;;;5060966;28;20107;-54
2021/12/09 10:54:52;;;;;;;3.40;2.10;;;;;;;;;;5064996;28;20032;-53
2021/12/09 10:57:29;;;;;;;2.30;1.90;;;;;;;;;;5060758;28;20021;-52
2021/12/09 10:59:55;;;;;;;1.85;1.58;;;;;;;;;;5064971;28;20518;-52
2021/12/09 11:02:22;;;;;;;1.60;1.40;;;;;;;;;;5065415;28;20037;-51
2021/12/09 11:05:01;;;;;;;1.42;1.30;;;;;;;;;;5066501;28;20077;-52
2021/12/09 11:07:31;;;;;;;2.28;1.30;;;;;;;;;;5063277;28;20032;-53
2021/12/09 11:10:15;;;;;;;1.38;1.23;;;;;;;;;;5065247;28;20040;-50
2021/12/09 11:12:42;;;;;;;;;;;;;;;;;;5058902;28;20384;-51
2021/12/09 11:15:08;;;;;;;2.33;1.58;;;;;;;;;;5057663;28;19916;-51
2021/12/09 11:17:38;;;;;;;1.42;1.27;;;;;;;;;;5068061;28;20094;-50
2021/12/09 11:20:04;;;;;;;2.35;1.40;;;;;;;;;;5064947;28;20076;-51
2021/12/09 11:22:34;;;;;;;3.25;1.65;;;;;;;;;;5066552;28;20033;-53
2021/12/09 11:25:05;;;;;;;1.83;1.30;;;;;;;;;;5066337;28;20077;-51
2021/12/09 11:27:31;;;;;;;2.95;1.60;;;;;;;;;;5065763;28;20033;-53
2021/12/09 11:30:13;;;;;;;1.80;1.42;;;;;;;;;;5065550;28;20085;-53
2021/12/09 11:32:49;;;;;;;2.97;1.50;;;;;;;;;;5063768;28;20119;-53
2021/12/09 11:35:20;;;;;;;1.58;1.20;;;;;;;;;;5064304;28;20032;-48
2021/12/09 11:38:06;;;;;;;1.63;1.40;;;;;;;;;;5065517;28;20105;-51
2021/12/09 11:40:40;;;;;;;1.73;1.20;;;;;;;;;;5063075;28;20033;-48
2021/12/09 11:43:07;;;;;;;2.60;1.42;;;;;;;;;;5064824;28;20101;-53
2021/12/09 11:45:37;;;;;;;2.55;1.52;;;;;;;;;;5065858;28;20029;-52
2021/12/09 11:48:04;;;;;;;2.25;1.50;;;;;;;;;;5066269;28;20636;-49
2021/12/09 11:50:32;;;;;;;2.85;1.80;;;;;;;;;;5060855;28;20455;-53
2021/12/09 11:53:00;;;;;;;7.50;2.10;;;;;;;;;;5046700;28;20644;-53
2021/12/09 11:55:39;;;;;;;3.17;1.70;;;;;;;;;;5066000;28;20401;-52
2021/12/09 11:58:12;;;;;;;2.90;1.77;;;;;;;;;;5064410;28;20111;-53
2021/12/09 12:12:30;;;;;;;1.88;1.35;;;;;;;;;;5065161;28;20051;-49
2021/12/09 12:15:02;;;;;;;2.13;1.50;;;;;;;;;;5068177;28;20043;-49
2021/12/09 12:17:36;;;;;;;2.13;1.27;;;;;;;;;;5069703;28;20406;-49
2021/12/09 12:25:38;;;;;;;3.72;1.73;;;;;;;;;;5074207;28;20032;-49
2021/12/09 12:28:28;;;;;;;2.22;1.27;;;;;;;;;;5068416;28;20024;-52
2021/12/09 12:33:59;;;;;;;2.72;1.00;;;;;;;;;;5069200;28;20127;-52
2021/12/09 12:37:04;;;;;;;2.00;1.35;;;;;;;;;;5028794;28;20043;-52
2021/12/09 12:39:56;;;;;;;3.05;1.83;;;;;;;;;;5067919;28;20082;-50
2021/12/09 12:45:22;;;;;;;2.67;2.28;;;;;;;;;;5031330;28;20033;-51
2021/12/09 12:48:09;;;;;;;2.85;1.98;;;;;;;;;;5065727;28;20024;-53
2021/12/09 12:50:35;;;;;;;2.33;1.63;;;;;;;;;;5067128;28;20039;-51
2021/12/09 12:53:20;;;;;;;2.75;1.85;;;;;;;;;;5067103;28;20115;-51
2021/12/09 12:56:06;;;;;;;1.50;1.40;;;;;;;;;;5067295;28;20025;-50
2021/12/09 12:58:32;;;;;;;4.13;2.28;;;;;;;;;;5050360;28;20072;-50
2021/12/09 13:01:14;;;;;;;3.42;2.17;;;;;;;;;;5068048;28;20376;-52
2021/12/09 13:03:46;;;;;;;2.00;1.63;;;;;;;;;;5066738;28;20024;-49
2021/12/09 13:06:36;;;;;;;2.33;1.70;;;;;;;;;;5065955;28;20017;-52
2021/12/09 13:09:24;;;;;;;1.83;1.63;;;;;;;;;;5066398;28;20020;-52
2021/12/09 13:12:00;;;;;;;2.55;1.70;;;;;;;;;;5066404;28;20036;-53
2021/12/09 13:14:34;;;;;;;2.30;1.60;;;;;;;;;;5066918;28;20043;-52
2021/12/09 13:17:05;;;;;;;1.60;1.50;;;;;;;;;;5066902;28;20028;-51
2021/12/09 13:19:49;;;;;;;2.03;1.40;;;;;;;;;;5066442;28;20089;-50
2021/12/09 13:22:19;;;;;;;1.20;1.10;;;;;;;;;;5066394;28;20550;-52
2021/12/09 13:24:59;;;;;;;1.58;1.35;;;;;;;;;;5066163;28;20047;-50
2021/12/09 13:27:40;;;;;;;2.42;1.67;;;;;;;;;;5066657;28;20034;-52
2021/12/09 13:33:09;;;;;;;2.35;1.20;;;;;;;;;;5066414;28;20052;-51
2021/12/09 13:47:06;;;;;;;2.65;1.30;;;;;;;;;;5066796;28;20116;-51
2021/12/09 13:54:07;;;;;;;1.95;1.75;;;;;;;;;;5066358;28;20503;-52
2021/12/09 13:54:55;;;;;;;1.88;1.52;;;;;;;;;;5065410;28;20028;-51
2021/12/09 13:57:29;;;;;;;3.72;1.55;;;;;;;;;;5065072;28;20112;-52
2021/12/09 13:59:56;;;;;;;;;;;;;;;;;;5066568;28;20107;-52
2021/12/09 14:02:23;;;;;;;1.63;1.40;;;;;;;;;;5059210;28;20299;-52
2021/12/09 14:04:52;;;;;;;2.17;1.52;;;;;;;;;;5062180;28;20024;-51
2021/12/09 14:07:25;;;;;;;2.15;1.77;;;;;;;;;;5062964;28;20043;-51
2021/12/09 14:10:04;;;;;;;3.00;1.80;;;;;;;;;;5064237;28;20027;-52
2021/12/09 14:12:37;;;;;;;2.85;2.05;;;;;;;;;;5064339;28;20282;-51
2021/12/09 14:15:10;;;;;;;3.13;2.08;;;;;;;;;;5064675;28;20123;-51
2021/12/09 14:17:42;;;;;;;4.60;2.45;;;;;;;;;;5070377;28;20024;-51
2021/12/09 14:20:19;;;;;;;2.90;2.10;;;;;;;;;;5053838;28;20048;-52
2021/12/09 14:22:48;;;;;;;3.90;2.33;;;;;;;;;;5060053;28;20527;-50
2021/12/09 14:25:16;;;;;;;6.60;2.42;;;;;;;;;;5066181;28;20475;-52
2021/12/09 14:27:43;;;;;;;3.55;2.58;;;;;;;;;;5065897;28;20036;-53
2021/12/09 14:30:10;;;;;;;4.03;3.00;;;;;;;;;;5063059;28;20032;-53
2021/12/09 14:32:37;;;;;;;5.53;3.45;;;;;;;;;;5062247;28;20042;-52
2021/12/09 14:35:07;;;;;;;4.60;3.08;;;;;;;;;;5064280;28;20097;-51
2021/12/09 14:37:35;;;;;;;2.67;2.13;;;;;;;;;;5062224;28;20028;-52
2021/12/09 14:40:23;;;;;;;2.92;2.33;;;;;;;;;;5062580;28;20043;-52
2021/12/09 14:42:50;;;;;;;2.45;1.95;;;;;;;;;;5065279;28;20012;-51
2021/12/09 14:45:16;;;;;;;2.42;1.73;;;;;;;;;;5065260;28;20032;-48
2021/12/09 14:48:04;;;;;;;3.15;1.90;;;;;;;;;;5066082;28;20051;-52
2021/12/09 14:50:32;;;;;;;2.50;1.85;;;;;;;;;;5063220;28;20067;-53
2021/12/09 14:52:59;;;;;;;3.35;1.92;;;;;;;;;;5064726;28;20033;-49
2021/12/09 14:55:28;;;;;;;4.72;2.30;;;;;;;;;;5066606;28;20406;-50
2021/12/09 14:58:09;;;;;;;4.38;2.60;;;;;;;;;;5062306;28;20025;-49
2021/12/09 15:00:38;;;;;;;4.70;2.80;;;;;;;;;;5071240;28;20422;-49
2021/12/09 15:03:07;;;;;;;5.00;2.97;;;;;;;;;;5064891;28;20021;-49
2021/12/09 15:05:47;;;;;;;4.90;2.72;;;;;;;;;;5065758;28;20032;-50
2021/12/09 15:08:20;;;;;;;3.80;2.72;;;;;;;;;;5061202;28;20119;-52
2021/12/09 15:10:48;;;;;;;4.93;3.53;;;;;;;;;;5063798;28;20133;-50
2021/12/09 15:13:14;;;;;;;6.22;3.10;;;;;;;;;;5050459;28;20039;-49
2021/12/09 15:15:40;;;;;;;4.93;3.20;;;;;;;;;;5062387;28;20032;-51
2021/12/09 15:18:08;;;;;;;8.32;3.70;;;;;;;;;;5072160;28;20024;-51
2021/12/09 15:20:40;;;;;;;5.75;3.03;;;;;;;;;;5061885;28;20056;-53
2021/12/09 15:23:12;;;;;;;3.58;2.50;;;;;;;;;;5065360;28;20024;-49
2021/12/09 15:25:39;;;;;;;4.38;2.80;;;;;;;;;;5058768;28;20040;-53
2021/12/09 15:28:15;;;;;;;7.05;3.33;;;;;;;;;;5070078;28;20035;-52
2021/12/09 15:30:52;;;;;;;6.65;3.88;;;;;;;;;;5064898;28;20052;-49
2021/12/09 15:33:25;;;;;;;7.25;3.67;;;;;;;;;;5061987;28;20698;-49
2021/12/09 15:36:01;;;;;;;6.38;3.55;;;;;;;;;;5060863;28;20046;-49
2021/12/09 15:38:27;;;;;;;7.50;2.97;;;;;;;;;;5066296;28;20057;-51